Lupin, N. W. T.

CWIJ · 加拿大

TAF CWIJ · Lupin, N. W. T.

13 七月 00:40 LT
5h
使用的TAF站离机场有154 NM的距离
2024年7月13日 01:002024年7月13日 13:00有效
时间
星期六
01:00
星期六
02:00
星期六
03:00
星期六
04:00
星期六
05:00
星期六
06:00
星期六
07:00
星期六
08:00
星期六
09:00
星期六
10:00
星期六
11:00
星期六
12:00
代码
VFR
VFR
VFR
VFR
VFR
VFR
VFR
VFR
VFR
VFR
VFR
VFR
天气
疏云,零星散落的云朵
疏云,零星散落的云朵
疏云,零星散落的云朵
疏云,零星散落的云朵
疏云,零星散落的云朵
疏云,零星散落的云朵
疏云,零星散落的云朵
疏云,零星散落的云朵
疏云,零星散落的云朵
疏云,零星散落的云朵
疏云,零星散落的云朵
疏云,零星散落的云朵
能见度
6 mi+
6 mi+
6 mi+
6 mi+
6 mi+
6 mi+
6 mi+
6 mi+
6 mi+
6 mi+
6 mi+
6 mi+
天花板
-
-
-
-
-
-
-
-
-
-
-
-
Var
Var
Var
Var
Var
Var
250°
250°
250°
250°
250°
250°
250°
250°
250°
250°
250°
250°
250°
250°
250°
250°
250°
250°
速度
3 kt
3 kt
3 kt
8 kt
8 kt
8 kt
8 kt
8 kt
8 kt
8 kt
8 kt
8 kt
阵风
温度/星期日

原版的

TAF CYCO 130640Z 1307/1319 VRB03KT P6SM SCT040 SCT150
BECMG 1310/1312 25008KT RMK NXT FCST BY 131300Z

TAF Lupin, N. W. T.

该字段位于加拿大中。 该机场位于纬度65,76667和经度-111,23333。 本场的ICAO机场代码为CWIJ。 机场在Edmonton FIR中。

该航空气象观测是针对Kugluktuk Airport在2024年7月13日 00:40, 当地时间进行的。 从2024年7月13日 01:00到2024年7月13日 13:00, 当地时间有效.

预报

  • 在星期六 01:00和13:00之间

    • 风: 可变方向的风很小或没有。
    • 能见度: 6 mi 或者更多
    • 乌云: 疏云,零星散落的云朵在4.000 ft的高度 和 疏云,零星散落的云朵在15.000 ft的高度.
  • 介于星期六 04:00和06:00之间

    • 风: 风来自250°方向,速度为8 kt。

白天

今天,太阳从03:02升起,在23:58降落。 这适用于Lupin, N. W. T.,世界夏令时可能有所不同。 当地时间与世界标准时间之间的时差为-6 小时。 夏令时目前正在进行中。

报告变更